Weather at Flying P Airport

Public forecast

Using degrees Fahrenheit for public forecast. Weather courtesy of forecast.io.

Closest aviation weather report (METAR) to Flying P Airport

Closest report is Denton Municipal Airport, 9.4 nm (17.4 km) ENE. Retrieved 2020/09/21 08:53 UTC (44 minutes ago):

KDTO 210853Z AUTO 03003KT 10SM CLR 17/16 A3011 RMK AO2 RAB0754E03B23E26B44E53 SLP190 P0000 60000 T01720156 58004

Closest aviation forecast (TAF) to Flying P Airport

Closest forecast is Fort Worth Alliance Airport, 9.6 nm (17.7 km) SSE. Retrieved 2020/09/21 06:22 UTC (3 hours ago):

TAF KAFW 210520Z 2106/2206 07008KT P6SM BKN040 FM211700 05011KT P6SM VCSH OVC025 FM212000 04011KT 5SM -SHRA BR OVC018 FM212200 04011KT 5SM SHRA BR OVC008